createdAt,value
2018-05-01T00:01:04.691Z,95073
2018-05-01T00:03:33.698Z,95061
2018-05-01T00:06:03.524Z,95065
2018-05-01T00:08:32.552Z,95063
2018-05-01T00:11:01.576Z,95052
2018-05-01T00:13:30.619Z,95055
2018-05-01T00:15:59.638Z,95052
2018-05-01T00:18:28.701Z,95061
2018-05-01T00:20:57.722Z,95067
2018-05-01T00:23:26.739Z,95051
2018-05-01T00:25:55.777Z,95058
2018-05-01T00:28:24.796Z,95058
2018-05-01T00:30:53.830Z,95045
2018-05-01T00:33:23.612Z,95046
2018-05-01T00:35:52.679Z,95057
2018-05-01T00:38:21.700Z,95058
2018-05-01T00:40:50.739Z,95058
2018-05-01T00:43:19.779Z,95066
2018-05-01T00:45:48.790Z,95068
2018-05-01T00:48:17.865Z,95062
2018-05-01T00:50:46.914Z,95056
2018-05-01T00:53:15.998Z,95061
2018-05-01T00:55:45.010Z,95051
2018-05-01T00:58:14.059Z,95054
2018-05-01T01:00:43.074Z,95066
2018-05-01T01:03:12.084Z,95061
2018-05-01T01:05:41.156Z,95068
2018-05-01T01:08:10.176Z,95060
2018-05-01T01:10:39.194Z,95059
2018-05-01T01:13:08.274Z,95054
2018-05-01T01:15:37.304Z,95049
2018-05-01T01:18:06.327Z,95061
2018-05-01T01:20:35.380Z,95076
2018-05-01T01:23:04.400Z,95067
2018-05-01T01:25:33.448Z,95065
2018-05-01T01:28:02.460Z,95060
2018-05-01T01:30:31.503Z,95063
2018-05-01T01:33:00.731Z,95066
2018-05-01T01:35:29.038Z,95065
2018-05-01T01:37:57.307Z,95073
2018-05-01T01:40:25.631Z,95066
2018-05-01T01:42:54.658Z,95063
2018-05-01T01:45:22.951Z,95064
2018-05-01T01:47:51.244Z,95073
2018-05-01T01:50:19.550Z,95077
2018-05-01T01:52:48.595Z,95086
2018-05-01T01:55:17.211Z,95074
2018-05-01T01:57:45.510Z,95069
2018-05-01T02:00:13.773Z,95066
2018-05-01T02:02:42.837Z,95072
2018-05-01T02:05:11.132Z,95079
2018-05-01T02:07:39.432Z,95083
2018-05-01T02:10:07.698Z,95087
2018-05-01T02:12:36.023Z,95080
2018-05-01T02:15:04.295Z,95079
2018-05-01T02:17:32.596Z,95079
2018-05-01T02:20:00.863Z,95074
2018-05-01T02:22:29.176Z,95078
2018-05-01T02:24:58.232Z,95088
2018-05-01T02:27:26.538Z,95098
2018-05-01T02:29:55.614Z,95100
2018-05-01T02:32:23.889Z,95101
2018-05-01T02:34:52.248Z,95101
2018-05-01T02:37:20.576Z,95091
2018-05-01T02:39:48.840Z,95099
2018-05-01T02:42:17.155Z,95105
2018-05-01T02:44:45.445Z,95104
2018-05-01T02:47:13.752Z,95099
2018-05-01T02:49:42.031Z,95112
2018-05-01T02:52:10.345Z,95103
2018-05-01T02:54:38.607Z,95099
2018-05-01T02:57:06.927Z,95105
2018-05-01T02:59:35.200Z,95096
2018-05-01T03:02:03.839Z,95105
2018-05-01T03:04:32.110Z,95107
2018-05-01T03:07:01.184Z,95090
2018-05-01T03:09:29.463Z,95098
2018-05-01T03:11:57.764Z,95104
2018-05-01T03:14:26.795Z,95101
2018-05-01T03:16:55.102Z,95090
2018-05-01T03:19:23.395Z,95083
2018-05-01T03:21:51.688Z,95076
2018-05-01T03:24:19.963Z,95078
2018-05-01T03:26:49.024Z,95105
2018-05-01T03:29:17.336Z,95098
2018-05-01T03:31:45.632Z,95084
2018-05-01T03:34:13.915Z,95091
2018-05-01T03:36:42.210Z,95095
2018-05-01T03:39:10.536Z,95099
2018-05-01T03:41:38.796Z,95104
2018-05-01T03:44:07.074Z,95110
2018-05-01T03:46:35.363Z,95115
2018-05-01T03:49:03.635Z,95115
2018-05-01T03:51:31.949Z,95118
2018-05-01T03:54:00.216Z,95117
2018-05-01T03:56:28.515Z,95119
2018-05-01T03:58:56.792Z,95113
2018-05-01T04:01:25.108Z,95119
2018-05-01T04:03:54.154Z,95123
2018-05-01T04:06:22.457Z,95131
2018-05-01T04:08:50.723Z,95135
2018-05-01T04:11:19.028Z,95134
2018-05-01T04:13:48.071Z,95129
2018-05-01T04:16:16.414Z,95133
2018-05-01T04:18:44.689Z,95132
2018-05-01T04:21:12.967Z,95135
2018-05-01T04:23:41.258Z,95140
2018-05-01T04:26:09.521Z,95148
2018-05-01T04:28:37.835Z,95146
2018-05-01T04:31:06.112Z,95150
2018-05-01T04:33:34.420Z,95158
2018-05-01T04:36:02.703Z,95158
2018-05-01T04:38:31.022Z,95163
2018-05-01T04:40:59.311Z,95164
2018-05-01T04:43:27.653Z,95158
2018-05-01T04:45:55.959Z,95167
2018-05-01T04:48:24.255Z,95171
2018-05-01T04:50:52.534Z,95182
2018-05-01T04:53:20.845Z,95185
2018-05-01T04:55:49.134Z,95190
2018-05-01T04:58:17.445Z,95196
2018-05-01T05:00:45.719Z,95187
2018-05-01T05:03:14.012Z,95196
2018-05-01T05:05:42.275Z,95197
2018-05-01T05:08:10.615Z,95201
2018-05-01T05:10:38.897Z,95206
2018-05-01T05:13:07.218Z,95209
2018-05-01T05:15:35.588Z,95212
2018-05-01T05:18:03.887Z,95225
2018-05-01T05:20:32.155Z,95230
2018-05-01T05:23:00.452Z,95237
2018-05-01T05:25:29.489Z,95243
2018-05-01T05:27:57.784Z,95232
2018-05-01T05:30:26.055Z,95234
2018-05-01T05:32:54.351Z,95246
2018-05-01T05:35:22.625Z,95137
2018-05-01T05:37:50.929Z,95232
2018-05-01T05:40:19.963Z,95238
2018-05-01T05:42:48.420Z,95253
2018-05-01T05:45:16.690Z,95245
2018-05-01T05:47:44.964Z,95247
2018-05-01T05:50:13.291Z,95252
2018-05-01T05:52:41.955Z,95255
2018-05-01T05:55:10.283Z,95252
2018-05-01T05:57:38.579Z,95257
2018-05-01T06:00:06.858Z,95251
2018-05-01T06:02:35.158Z,95249
2018-05-01T06:05:03.436Z,95259
2018-05-01T06:07:31.751Z,95260
2018-05-01T06:10:00.068Z,95270
2018-05-01T06:12:28.375Z,95277
2018-05-01T06:14:56.693Z,95271
2018-05-01T06:17:25.751Z,95278
2018-05-01T06:19:54.035Z,95270
2018-05-01T06:22:22.347Z,95281
2018-05-01T06:24:50.623Z,95274
2018-05-01T06:27:19.027Z,95286
2018-05-01T06:29:47.312Z,95283
2018-05-01T06:32:15.608Z,95288
2018-05-01T06:34:43.871Z,95299
2018-05-01T06:37:14.259Z,95308
2018-05-01T06:39:42.527Z,95304
2018-05-01T06:42:10.848Z,95311
2018-05-01T06:44:39.127Z,95308
2018-05-01T06:47:07.639Z,95308
2018-05-01T06:49:35.932Z,95316
2018-05-01T06:52:04.190Z,95315
2018-05-01T06:54:33.266Z,95311
2018-05-01T06:57:01.536Z,95312
2018-05-01T06:59:29.831Z,95321
2018-05-01T07:01:58.096Z,95329
2018-05-01T07:04:26.486Z,95329
2018-05-01T07:06:54.897Z,95333
2018-05-01T07:09:23.207Z,95335
2018-05-01T07:11:51.484Z,95336
2018-05-01T07:14:19.783Z,95344
2018-05-01T07:16:48.052Z,95349
2018-05-01T07:19:17.363Z,95354
2018-05-01T07:21:45.631Z,95350
2018-05-01T07:24:14.731Z,95353
2018-05-01T07:26:43.006Z,95376
2018-05-01T07:29:11.309Z,95355
2018-05-01T07:31:40.352Z,95363
2018-05-01T07:34:08.653Z,95368
2018-05-01T07:36:36.920Z,95372
2018-05-01T07:39:05.216Z,95378
2018-05-01T07:41:34.290Z,95376
2018-05-01T07:44:02.579Z,95368
2018-05-01T07:46:31.623Z,95370
2018-05-01T07:49:00.012Z,95364
2018-05-01T07:51:28.224Z,95365
2018-05-01T07:53:57.298Z,95364
2018-05-01T07:56:26.389Z,95363
2018-05-01T07:58:54.704Z,95367
2018-05-01T08:01:23.124Z,95373
2018-05-01T08:03:51.427Z,95382
2018-05-01T08:06:19.779Z,95381
2018-05-01T08:08:48.184Z,95375
2018-05-01T08:11:16.483Z,95378
2018-05-01T08:13:44.760Z,95382
2018-05-01T08:16:13.061Z,95384
2018-05-01T08:18:41.410Z,95385
2018-05-01T08:21:09.688Z,95383
2018-05-01T08:23:38.728Z,95378
2018-05-01T08:26:07.023Z,95386
2018-05-01T08:28:35.300Z,95387
2018-05-01T08:31:03.644Z,95384
2018-05-01T08:33:31.920Z,95382
2018-05-01T08:36:00.215Z,95381
2018-05-01T08:38:28.494Z,95387
2018-05-01T08:40:56.787Z,95388
2018-05-01T08:43:25.292Z,95385
2018-05-01T08:45:53.568Z,95386
2018-05-01T08:48:21.857Z,95398
2018-05-01T08:50:50.167Z,95392
2018-05-01T08:53:18.467Z,95399
2018-05-01T08:55:46.756Z,95429
2018-05-01T08:58:15.068Z,95425
2018-05-01T09:00:43.367Z,95418
2018-05-01T09:03:11.725Z,95419
2018-05-01T09:05:39.983Z,95420
2018-05-01T09:08:09.059Z,95424
2018-05-01T09:10:37.340Z,95427
2018-05-01T09:13:05.642Z,95423
2018-05-01T09:15:33.912Z,95422
2018-05-01T09:18:02.358Z,95425
2018-05-01T09:20:30.528Z,95446
2018-05-01T09:22:58.839Z,95427
2018-05-01T09:25:27.197Z,95438
2018-05-01T09:27:55.587Z,95461
2018-05-01T09:30:24.640Z,95440
2018-05-01T09:32:52.946Z,95453
2018-05-01T09:35:22.095Z,95463
2018-05-01T09:37:50.379Z,95460
2018-05-01T09:40:18.761Z,95470
2018-05-01T09:42:47.080Z,95463
2018-05-01T09:45:16.170Z,95450
2018-05-01T09:47:44.511Z,95454
2018-05-01T09:50:12.786Z,95459
2018-05-01T09:52:41.818Z,95447
2018-05-01T09:55:10.868Z,95463
2018-05-01T09:58:02.672Z,95463
2018-05-01T10:00:31.725Z,95475
2018-05-01T10:03:01.564Z,95478
2018-05-01T10:05:30.640Z,95492
2018-05-01T10:08:00.454Z,95481
2018-05-01T10:10:31.011Z,95480
2018-05-01T10:13:00.024Z,95480
2018-05-01T10:15:29.718Z,95482
2018-05-01T10:17:58.893Z,95485
2018-05-01T10:20:28.204Z,95480
2018-05-01T10:22:57.215Z,95486
2018-05-01T10:25:26.567Z,95469
2018-05-01T10:27:55.606Z,95467
2018-05-01T10:30:24.673Z,95459
2018-05-01T10:32:53.727Z,95462
2018-05-01T10:35:22.800Z,95464
2018-05-01T10:37:54.630Z,95450
2018-05-01T10:40:24.013Z,95458
2018-05-01T10:42:53.047Z,95460
2018-05-01T10:45:22.104Z,95450
2018-05-01T10:47:52.059Z,95437
2018-05-01T10:50:21.147Z,95423
2018-05-01T10:52:50.261Z,95398
2018-05-01T10:55:20.169Z,95392
2018-05-01T10:57:50.150Z,95403
2018-05-01T11:00:19.955Z,95408
2018-05-01T11:02:49.966Z,95413
2018-05-01T11:05:19.077Z,95414
2018-05-01T11:07:49.771Z,95399
2018-05-01T11:10:19.035Z,95400
2018-05-01T11:12:48.040Z,95387
2018-05-01T11:15:17.087Z,95389
2018-05-01T11:17:47.003Z,95388
2018-05-01T11:20:16.170Z,95385
2018-05-01T11:22:45.174Z,95391
2018-05-01T11:25:14.256Z,95386
2018-05-01T11:27:43.508Z,95392
2018-05-01T11:30:12.543Z,95389
2018-05-01T11:32:41.751Z,95385
2018-05-01T11:35:10.943Z,95407
2018-05-01T11:37:39.950Z,95415
2018-05-01T11:40:09.278Z,95405
2018-05-01T11:42:38.352Z,95421
2018-05-01T11:45:07.499Z,95422
2018-05-01T11:47:36.638Z,95427
2018-05-01T11:50:05.787Z,95429
2018-05-01T11:52:34.867Z,95429
2018-05-01T11:55:04.773Z,95419
2018-05-01T11:57:33.792Z,95417
2018-05-01T12:00:02.881Z,95411
2018-05-01T12:02:31.891Z,95421
2018-05-01T12:05:00.895Z,95420
2018-05-01T12:07:29.949Z,95418
2018-05-01T12:09:59.222Z,95415
2018-05-01T12:12:28.245Z,95414
2018-05-01T12:14:57.279Z,95407
2018-05-01T12:17:26.299Z,95415
2018-05-01T12:19:55.348Z,95398
2018-05-01T12:22:24.355Z,95414
2018-05-01T12:24:53.463Z,95427
2018-05-01T12:27:22.493Z,95421
2018-05-01T12:29:51.580Z,95418
2018-05-01T12:32:20.590Z,95415
2018-05-01T12:34:49.661Z,95412
2018-05-01T12:37:18.679Z,95410
2018-05-01T12:39:47.723Z,95415
2018-05-01T12:42:17.835Z,95410
2018-05-01T12:44:50.042Z,95406
2018-05-01T12:47:19.965Z,95403
2018-05-01T12:49:50.068Z,95402
2018-05-01T12:52:19.168Z,95410
2018-05-01T12:54:49.916Z,95412
2018-05-01T12:57:19.708Z,95448
2018-05-01T12:59:48.739Z,95419
2018-05-01T13:02:19.727Z,95412
2018-05-01T13:04:48.768Z,95407
2018-05-01T13:07:17.813Z,95405
2018-05-01T13:09:46.952Z,95400
2018-05-01T13:12:16.148Z,95432
2018-05-01T13:14:45.209Z,95402
2018-05-01T13:17:14.280Z,95399
2018-05-01T13:19:44.422Z,95398
2018-05-01T13:22:14.243Z,95409
2018-05-01T13:24:43.372Z,95404
2018-05-01T13:27:16.345Z,95408
2018-05-01T13:29:46.174Z,95403
2018-05-01T13:32:15.384Z,95393
2018-05-01T13:34:44.487Z,95399
2018-05-01T13:37:13.531Z,95396
2018-05-01T13:39:56.253Z,95407
2018-05-01T13:42:25.479Z,95401
2018-05-01T13:44:54.659Z,95400
2018-05-01T13:47:23.616Z,95390
2018-05-01T13:49:53.424Z,95389
2018-05-01T13:52:23.437Z,95382
2018-05-01T13:54:52.493Z,95395
2018-05-01T13:57:22.415Z,95421
2018-05-01T13:59:52.171Z,95387
2018-05-01T14:02:25.621Z,95380
2018-05-01T14:04:54.693Z,95392
2018-05-01T14:07:25.162Z,95392
2018-05-01T14:09:55.203Z,95391
2018-05-01T14:12:24.300Z,95393
2018-05-01T14:14:53.312Z,95393
2018-05-01T14:17:22.375Z,95391
2018-05-01T14:19:54.818Z,95389
2018-05-01T14:22:23.920Z,95393
2018-05-01T14:24:52.984Z,95390
2018-05-01T14:27:22.202Z,95392
2018-05-01T14:29:52.417Z,95393
2018-05-01T14:32:21.782Z,95401
2018-05-01T14:34:50.827Z,95392
2018-05-01T14:37:19.835Z,95393
2018-05-01T14:39:48.900Z,95401
2018-05-01T14:42:17.943Z,95402
2018-05-01T14:44:47.188Z,95392
2018-05-01T14:47:16.206Z,95386
2018-05-01T14:49:45.216Z,95392
2018-05-01T14:52:14.358Z,95389
2018-05-01T14:54:44.291Z,95379
2018-05-01T14:57:13.345Z,95379
2018-05-01T14:59:42.702Z,95277
2018-05-01T15:02:11.732Z,95368
2018-05-01T15:04:42.821Z,95360
2018-05-01T15:07:11.852Z,95359
2018-05-01T15:09:41.045Z,95360
2018-05-01T15:12:10.056Z,95355
2018-05-01T15:14:39.863Z,95351
2018-05-01T15:17:09.746Z,95350
2018-05-01T15:19:38.750Z,95362
2018-05-01T15:22:07.771Z,95357
2018-05-01T15:24:36.831Z,95368
2018-05-01T15:27:05.856Z,95362
2018-05-01T15:29:34.866Z,95364
2018-05-01T15:32:05.455Z,95373
2018-05-01T15:34:34.513Z,95373
2018-05-01T15:37:03.621Z,95368
2018-05-01T15:39:32.691Z,95373
2018-05-01T15:42:01.709Z,95363
2018-05-01T15:44:30.795Z,95364
2018-05-01T15:47:00.059Z,95373
2018-05-01T15:49:29.131Z,95371
2018-05-01T15:51:58.187Z,95373
2018-05-01T15:54:27.270Z,95386
2018-05-01T15:56:56.286Z,95380
2018-05-01T15:59:25.355Z,95376
2018-05-01T16:01:54.375Z,95374
2018-05-01T16:04:23.491Z,95376
2018-05-01T16:06:52.697Z,95371
2018-05-01T16:09:21.763Z,95388
2018-05-01T16:11:50.773Z,95377
2018-05-01T16:14:19.917Z,95372
2018-05-01T16:16:48.892Z,95367
2018-05-01T16:19:17.917Z,95365
2018-05-01T16:21:47.002Z,95374
2018-05-01T16:24:16.023Z,95366
2018-05-01T16:26:45.250Z,95360
2018-05-01T16:29:14.400Z,95365
2018-05-01T16:31:43.475Z,95355
2018-05-01T16:34:13.273Z,95359
2018-05-01T16:36:42.323Z,95350
2018-05-01T16:39:11.519Z,95346
2018-05-01T16:41:40.648Z,95348
2018-05-01T16:44:09.690Z,95356
2018-05-01T16:46:38.696Z,95349
2018-05-01T16:49:07.759Z,95339
2018-05-01T16:51:37.536Z,95348
2018-05-01T16:54:06.551Z,95358
2018-05-01T16:56:36.379Z,95355
2018-05-01T16:59:05.408Z,95301
2018-05-01T17:01:34.517Z,95359
2018-05-01T17:04:03.562Z,95363
2018-05-01T17:06:32.601Z,95358
2018-05-01T17:09:01.653Z,95371
2018-05-01T17:11:30.765Z,95365
2018-05-01T17:13:59.807Z,95366
2018-05-01T17:16:28.863Z,95368
2018-05-01T17:18:57.942Z,95374
2018-05-01T17:21:26.997Z,95377
2018-05-01T17:23:56.797Z,95381
2018-05-01T17:26:25.848Z,95384
2018-05-01T17:28:54.860Z,95377
2018-05-01T17:31:23.910Z,95383
2018-05-01T17:33:52.949Z,95391
2018-05-01T17:36:21.991Z,95390
2018-05-01T17:38:51.762Z,95386
2018-05-01T17:41:20.838Z,95384
2018-05-01T17:43:49.858Z,95388
2018-05-01T17:46:18.902Z,95385
2018-05-01T17:48:48.021Z,95383
2018-05-01T17:51:16.973Z,95384
2018-05-01T17:53:46.035Z,95377
2018-05-01T17:56:15.063Z,95382
2018-05-01T17:58:45.195Z,95385
2018-05-01T18:01:14.207Z,95391
2018-05-01T18:03:43.262Z,95399
2018-05-01T18:06:13.040Z,95440
2018-05-01T18:08:42.111Z,95410
2018-05-01T18:11:12.136Z,95403
2018-05-01T18:13:41.255Z,95408
2018-05-01T18:16:10.264Z,95308
2018-05-01T18:18:40.035Z,95409
2018-05-01T18:21:09.101Z,95402
2018-05-01T18:23:38.124Z,95406
2018-05-01T18:26:07.148Z,95412
2018-05-01T18:28:36.985Z,95421
2018-05-01T18:31:06.009Z,95418
2018-05-01T18:33:35.031Z,95416
2018-05-01T18:36:04.072Z,95435
2018-05-01T18:38:33.115Z,95433
2018-05-01T18:41:02.140Z,95420
2018-05-01T18:43:31.195Z,95415
2018-05-01T18:46:01.076Z,95420
2018-05-01T18:48:30.091Z,95425
2018-05-01T18:50:59.214Z,95429
2018-05-01T18:53:28.195Z,95441
2018-05-01T18:55:57.212Z,95442
2018-05-01T18:58:27.032Z,95452
2018-05-01T19:00:56.829Z,95446
2018-05-01T19:03:26.122Z,95462
2018-05-01T19:05:55.907Z,95467
2018-05-01T19:08:24.931Z,95464
2018-05-01T19:10:53.974Z,95468
2018-05-01T19:13:23.056Z,95462
2018-05-01T19:15:52.161Z,95469
2018-05-01T19:18:21.175Z,95479
2018-05-01T19:20:50.227Z,95488
2018-05-01T19:23:20.156Z,95481
2018-05-01T19:25:49.188Z,95475
2018-05-01T19:28:18.199Z,95472
2018-05-01T19:30:47.243Z,95470
2018-05-01T19:33:16.332Z,95477
2018-05-01T19:35:45.448Z,95483
2018-05-01T19:38:14.536Z,95488
2018-05-01T19:40:43.644Z,95497
2018-05-01T19:43:12.703Z,95493
2018-05-01T19:45:41.724Z,95504
2018-05-01T19:48:11.144Z,95493
2018-05-01T19:50:40.166Z,95486
2018-05-01T19:53:09.934Z,95486
2018-05-01T19:55:39.025Z,95483
2018-05-01T19:58:08.480Z,95469
2018-05-01T20:00:38.039Z,95492
2018-05-01T20:03:07.438Z,95480
2018-05-01T20:05:36.585Z,95489
2018-05-01T20:08:05.993Z,95500
2018-05-01T20:10:35.071Z,95498
2018-05-01T20:13:04.240Z,95492
2018-05-01T20:15:33.594Z,95361
2018-05-01T20:18:03.038Z,95481
2018-05-01T20:20:32.120Z,95476
2018-05-01T20:23:02.308Z,95476
2018-05-01T20:25:33.200Z,95484
2018-05-01T20:28:02.553Z,95483
2018-05-01T20:30:31.767Z,95487
2018-05-01T20:33:01.156Z,95477
2018-05-01T20:35:30.331Z,95481
2018-05-01T20:38:00.238Z,95483
2018-05-01T20:40:29.254Z,95483
2018-05-01T20:42:58.329Z,95484
2018-05-01T20:45:27.649Z,95490
2018-05-01T20:47:57.155Z,95484
2018-05-01T20:50:26.788Z,95489
2018-05-01T20:52:55.799Z,95484
2018-05-01T20:55:24.855Z,95380
2018-05-01T20:57:53.969Z,95493
2018-05-01T21:00:23.143Z,95495
2018-05-01T21:02:52.135Z,95492
2018-05-01T21:05:21.196Z,95495
2018-05-01T21:07:50.357Z,95488
2018-05-01T21:10:19.366Z,95492
2018-05-01T21:12:49.371Z,95489
2018-05-01T21:15:19.574Z,95501
2018-05-01T21:17:49.904Z,95494
2018-05-01T21:20:21.043Z,95492
2018-05-01T21:22:51.818Z,95494
2018-05-01T21:25:22.196Z,95500
2018-05-01T21:27:54.797Z,95497
2018-05-01T21:30:25.250Z,95491
2018-05-01T21:32:54.280Z,95492
2018-05-01T21:35:23.719Z,95505
2018-05-01T21:37:52.839Z,95483
2018-05-01T21:40:24.076Z,95492
2018-05-01T21:42:53.601Z,95496
2018-05-01T21:45:22.585Z,95482
2018-05-01T21:47:53.107Z,95474
2018-05-01T21:50:22.490Z,95465
2018-05-01T21:52:51.494Z,95482
2018-05-01T21:55:20.755Z,95476
2018-05-01T21:57:49.796Z,95486
2018-05-01T22:00:18.815Z,95481
2018-05-01T22:02:47.890Z,95483
2018-05-01T22:05:17.259Z,95489
2018-05-01T22:07:46.311Z,95483
2018-05-01T22:10:15.320Z,95487
2018-05-01T22:12:44.686Z,95478
2018-05-01T22:15:13.712Z,95479
2018-05-01T22:17:42.747Z,95479
2018-05-01T22:20:11.765Z,95479
2018-05-01T22:22:40.815Z,95476
2018-05-01T22:25:09.940Z,95477
2018-05-01T22:27:38.988Z,95483
2018-05-01T22:30:08.004Z,95477
2018-05-01T22:32:37.800Z,95475
2018-05-01T22:35:06.810Z,95475
2018-05-01T22:37:35.964Z,95477
2018-05-01T22:40:05.124Z,95472
2018-05-01T22:42:34.416Z,95493
2018-05-01T22:45:03.467Z,95481
2018-05-01T22:47:32.463Z,95486
2018-05-01T22:50:01.509Z,95484
2018-05-01T22:52:30.538Z,95494
2018-05-01T22:55:00.369Z,95478
2018-05-01T22:57:29.531Z,95486
2018-05-01T22:59:58.821Z,95481
2018-05-01T23:02:27.929Z,95484
2018-05-01T23:04:56.931Z,95482
2018-05-01T23:07:25.991Z,95486
2018-05-01T23:09:54.988Z,95488
2018-05-01T23:12:24.409Z,95481
2018-05-01T23:14:53.477Z,95487
2018-05-01T23:17:22.475Z,95478
2018-05-01T23:19:51.564Z,95463
2018-05-01T23:22:20.619Z,95462
2018-05-01T23:24:50.390Z,95464
2018-05-01T23:27:19.391Z,95466
2018-05-01T23:29:48.444Z,95477
2018-05-01T23:32:17.455Z,95462
2018-05-01T23:34:46.538Z,95451
2018-05-01T23:37:16.282Z,95458
2018-05-01T23:39:45.311Z,95462
2018-05-01T23:42:15.132Z,95464
2018-05-01T23:44:44.131Z,95460
2018-05-01T23:47:13.131Z,95463
2018-05-01T23:49:42.198Z,95468
2018-05-01T23:52:11.188Z,95469
2018-05-01T23:54:40.197Z,95469
2018-05-01T23:57:09.232Z,95471
2018-05-01T23:59:38.527Z,95458
